TimeEST,TemperatureF,Dew PointF,Humidity,Sea Level PressureIn,VisibilityMPH,Wind Direction,Wind SpeedMPH,Gust SpeedMPH,PrecipitationIn,Events,Conditions,WindDirDegrees,DateUTC
12:15 AM,6.8,-2.2,67,-9999,9.0,North,6.9,-,N/A,,Overcast,10,2013-01-07 05:15:00
12:35 AM,6.8,-2.2,67,-9999,10.0,North,6.9,-,N/A,,Overcast,360,2013-01-07 05:35:00
12:55 AM,5.0,-0.4,78,-9999,10.0,North,6.9,-,N/A,,Mostly Cloudy,10,2013-01-07 05:55:00
1:15 AM,3.2,-4.0,72,30.00,10.0,North,6.9,-,N/A,,Partly Cloudy,10,2013-01-07 06:15:00
1:36 AM,3.2,-7.6,61,-9999,10.0,North,8.1,-,N/A,,Clear,360,2013-01-07 06:36:00
1:55 AM,3.2,-7.6,61,-9999,10.0,North,9.2,-,N/A,,Clear,360,2013-01-07 06:55:00
2:15 AM,1.4,-13.0,51,-9999,10.0,North,6.9,-,N/A,,Clear,360,2013-01-07 07:15:00
2:35 AM,1.4,-14.8,47,-9999,10.0,North,6.9,-,N/A,,Clear,360,2013-01-07 07:35:00
2:55 AM,1.4,-9999,N/A,-9999,10.0,North,5.8,-,N/A,,Clear,10,2013-01-07 07:55:00
3:15 AM,1.4,-27.4,25,30.04,10.0,North,9.2,-,N/A,,Mostly Cloudy,360,2013-01-07 08:15:00
3:35 AM,-0.4,-25.6,30,30.05,10.0,NNW,9.2,-,N/A,,Overcast,340,2013-01-07 08:35:00
3:55 AM,1.4,-20.2,36,30.05,10.0,NNW,10.4,-,N/A,,Overcast,340,2013-01-07 08:55:00
4:15 AM,1.4,-14.8,47,30.06,10.0,NNW,6.9,-,N/A,,Overcast,340,2013-01-07 09:15:00
4:35 AM,1.4,-11.2,56,30.06,10.0,NNW,8.1,-,N/A,,Overcast,330,2013-01-07 09:35:00
4:55 AM,1.4,-9.4,61,30.08,10.0,NNW,9.2,-,N/A,,Overcast,340,2013-01-07 09:55:00
5:15 AM,1.4,-14.8,47,30.09,10.0,North,9.2,-,N/A,,Overcast,360,2013-01-07 10:15:00
5:35 AM,1.4,-27.4,25,30.10,10.0,North,11.5,-,N/A,,Overcast,360,2013-01-07 10:35:00
5:55 AM,-0.4,-9999,N/A,30.11,10.0,North,10.4,-,N/A,,Scattered Clouds,360,2013-01-07 10:55:00
6:15 AM,-0.4,-29.2,25,30.13,10.0,NNW,8.1,-,N/A,,Clear,330,2013-01-07 11:15:00
6:35 AM,-2.2,-22.0,39,30.13,10.0,NW,8.1,-,N/A,,Clear,320,2013-01-07 11:35:00
6:55 AM,-2.2,-18.4,46,30.14,10.0,NW,6.9,-,N/A,,Clear,310,2013-01-07 11:55:00
7:15 AM,-2.2,-16.6,50,30.15,10.0,NW,8.1,-,N/A,,Clear,310,2013-01-07 12:15:00
7:35 AM,-4.0,-14.8,60,30.16,10.0,NW,5.8,-,N/A,,Clear,320,2013-01-07 12:35:00
7:55 AM,-4.0,-13.0,65,30.17,10.0,NNW,4.6,-,N/A,,Clear,340,2013-01-07 12:55:00
8:15 AM,-4.0,-14.8,60,30.19,10.0,North,4.6,-,N/A,,Clear,360,2013-01-07 13:15:00
8:55 AM,-2.2,-16.6,50,30.21,10.0,NNW,9.2,-,N/A,,Clear,330,2013-01-07 13:55:00
9:15 AM,-2.2,-14.8,55,30.23,10.0,NNW,8.1,-,N/A,,Clear,330,2013-01-07 14:15:00
9:35 AM,-2.2,-14.8,55,30.23,10.0,NNW,10.4,-,N/A,,Clear,340,2013-01-07 14:35:00
9:55 AM,-0.4,-13.0,55,30.24,8.0,NNW,9.2,-,N/A,,Clear,340,2013-01-07 14:55:00
10:15 AM,-0.4,-13.0,55,30.24,0.8,NNW,6.9,-,N/A,,Mostly Cloudy,340,2013-01-07 15:15:00
10:35 AM,-0.4,-13.0,55,30.23,10.0,NW,6.9,-,N/A,,Clear,320,2013-01-07 15:35:00
10:55 AM,1.4,-14.8,47,30.23,10.0,NNW,9.2,-,N/A,,Clear,330,2013-01-07 15:55:00
11:15 AM,1.4,-16.6,43,30.23,10.0,NNW,11.5,-,N/A,,Clear,330,2013-01-07 16:15:00
11:35 AM,1.4,-14.8,47,30.23,10.0,NNW,8.1,-,N/A,,Clear,330,2013-01-07 16:35:00
11:55 AM,3.2,-14.8,43,30.23,10.0,NNW,6.9,-,N/A,,Clear,330,2013-01-07 16:55:00
12:15 PM,3.2,-13.0,47,30.22,10.0,WNW,10.4,-,N/A,,Clear,300,2013-01-07 17:15:00
12:35 PM,3.2,-14.8,43,30.23,2.0,NNW,8.1,-,N/A,,Clear,340,2013-01-07 17:35:00
1:15 PM,6.8,-13.0,40,30.24,0.2,NW,10.4,-,N/A,,Mostly Cloudy,310,2013-01-07 18:15:00
1:35 PM,6.8,-16.6,34,30.24,10.0,NNW,9.2,-,N/A,,Clear,330,2013-01-07 18:35:00
1:55 PM,5.0,-16.6,36,30.25,10.0,North,9.2,-,N/A,,Clear,360,2013-01-07 18:55:00
2:15 PM,5.0,-14.8,40,30.25,10.0,North,6.9,-,N/A,,Clear,360,2013-01-07 19:15:00
2:35 PM,6.8,-13.0,40,30.25,10.0,North,8.1,-,N/A,,Clear,360,2013-01-07 19:35:00
2:55 PM,6.8,-5.8,56,30.25,1.2,North,6.9,-,N/A,,Clear,360,2013-01-07 19:55:00
3:15 PM,5.0,-13.0,43,30.25,10.0,North,4.6,-,N/A,,Clear,360,2013-01-07 20:15:00
3:56 PM,5.0,-14.8,40,30.25,10.0,Calm,Calm,-,N/A,,Clear,0,2013-01-07 20:56:00
4:15 PM,3.2,-14.8,43,30.26,10.0,Calm,Calm,-,N/A,,Clear,0,2013-01-07 21:15:00
4:35 PM,-0.4,-14.8,51,30.27,10.0,Calm,Calm,-,N/A,,Clear,0,2013-01-07 21:35:00
4:55 PM,-2.2,-9.4,71,30.25,10.0,Calm,Calm,-,N/A,,Clear,0,2013-01-07 21:55:00
5:15 PM,-2.2,-14.8,55,30.26,10.0,Calm,Calm,-,N/A,,Clear,0,2013-01-07 22:15:00
5:35 PM,-5.8,-18.4,55,30.27,10.0,Calm,Calm,-,N/A,,Clear,0,2013-01-07 22:35:00
5:55 PM,-5.8,-14.8,65,30.27,10.0,Calm,Calm,-,N/A,,Clear,0,2013-01-07 22:55:00
6:15 PM,-7.6,-20.2,54,30.26,10.0,Calm,Calm,-,N/A,,Clear,0,2013-01-07 23:15:00
6:35 PM,-7.6,-16.6,65,30.27,10.0,Calm,Calm,-,N/A,,Clear,0,2013-01-07 23:35:00
6:55 PM,-7.6,-16.6,65,30.27,10.0,Calm,Calm,-,N/A,,Clear,0,2013-01-07 23:55:00
7:15 PM,-7.6,-18.4,59,30.26,10.0,Calm,Calm,-,N/A,,Clear,0,2013-01-08 00:15:00
7:35 PM,-11.2,-20.2,64,30.26,10.0,Calm,Calm,-,N/A,,Clear,0,2013-01-08 00:35:00
8:15 PM,-11.2,-20.2,64,30.26,10.0,Calm,Calm,-,N/A,,Clear,0,2013-01-08 01:15:00
8:35 PM,-11.2,-23.8,54,30.26,10.0,Calm,Calm,-,N/A,,Clear,0,2013-01-08 01:35:00
8:55 PM,-14.8,-25.6,58,30.24,10.0,Calm,Calm,-,N/A,,Clear,0,2013-01-08 01:55:00
9:15 PM,-14.8,-23.8,64,30.24,10.0,Calm,Calm,-,N/A,,Clear,0,2013-01-08 02:15:00
9:35 PM,-13.0,-18.4,77,30.22,10.0,Calm,Calm,-,N/A,,Clear,0,2013-01-08 02:35:00
9:55 PM,-13.0,-25.6,53,30.22,10.0,Calm,Calm,-,N/A,,Clear,0,2013-01-08 02:55:00
10:15 PM,-13.0,-27.4,49,30.20,10.0,Calm,Calm,-,N/A,,Clear,0,2013-01-08 03:15:00
10:55 PM,-14.8,-27.4,53,30.18,10.0,Calm,Calm,-,N/A,,Clear,0,2013-01-08 03:55:00
11:15 PM,-14.8,-22.0,70,30.17,10.0,Calm,Calm,-,N/A,,Clear,0,2013-01-08 04:15:00
11:35 PM,-16.6,-9999,N/A,30.16,10.0,SW,3.5,-,N/A,,Clear,220,2013-01-08 04:35:00
11:55 PM,-11.2,-14.8,84,30.16,10.0,South,6.9,-,N/A,,Clear,190,2013-01-08 04:55:00